sensor_id;sensor_type;location;lat;lon;timestamp;P1;durP1;ratioP1;P2;durP2;ratioP2
11338;SDS011;5724;42.684;23.252;2022-09-09T00:15:33;8.63;;;8.00;;
11338;SDS011;5724;42.684;23.252;2022-09-09T00:20:57;8.23;;;7.72;;
11338;SDS011;5724;42.684;23.252;2022-09-09T00:23:25;8.65;;;7.88;;
11338;SDS011;5724;42.684;23.252;2022-09-09T00:28:25;9.80;;;7.63;;
11338;SDS011;5724;42.684;23.252;2022-09-09T00:30:55;7.90;;;7.40;;
11338;SDS011;5724;42.684;23.252;2022-09-09T00:33:23;8.73;;;8.23;;
11338;SDS011;5724;42.684;23.252;2022-09-09T00:35:52;9.98;;;9.05;;
11338;SDS011;5724;42.684;23.252;2022-09-09T00:38:35;8.60;;;8.00;;
11338;SDS011;5724;42.684;23.252;2022-09-09T00:43:40;9.75;;;8.95;;
11338;SDS011;5724;42.684;23.252;2022-09-09T00:57:25;9.48;;;8.68;;
11338;SDS011;5724;42.684;23.252;2022-09-09T01:06:26;9.07;;;8.48;;
11338;SDS011;5724;42.684;23.252;2022-09-09T01:09:02;8.75;;;8.15;;
11338;SDS011;5724;42.684;23.252;2022-09-09T01:17:00;9.93;;;9.13;;
11338;SDS011;5724;42.684;23.252;2022-09-09T01:22:26;12.40;;;9.23;;
11338;SDS011;5724;42.684;23.252;2022-09-09T01:25:17;9.52;;;8.65;;
11338;SDS011;5724;42.684;23.252;2022-09-09T01:27:43;8.85;;;8.18;;
11338;SDS011;5724;42.684;23.252;2022-09-09T01:30:11;9.18;;;8.77;;
11338;SDS011;5724;42.684;23.252;2022-09-09T01:32:40;9.60;;;8.93;;
11338;SDS011;5724;42.684;23.252;2022-09-09T01:35:13;10.73;;;9.85;;
11338;SDS011;5724;42.684;23.252;2022-09-09T01:37:46;10.15;;;9.55;;
11338;SDS011;5724;42.684;23.252;2022-09-09T01:40:11;9.23;;;8.50;;
11338;SDS011;5724;42.684;23.252;2022-09-09T01:42:37;9.68;;;8.93;;
11338;SDS011;5724;42.684;23.252;2022-09-09T01:45:02;9.80;;;9.25;;
11338;SDS011;5724;42.684;23.252;2022-09-09T01:47:29;10.23;;;9.40;;
11338;SDS011;5724;42.684;23.252;2022-09-09T01:49:54;9.65;;;8.90;;
11338;SDS011;5724;42.684;23.252;2022-09-09T01:52:20;8.82;;;8.23;;
11338;SDS011;5724;42.684;23.252;2022-09-09T01:54:45;9.38;;;8.82;;
11338;SDS011;5724;42.684;23.252;2022-09-09T01:57:14;8.60;;;8.07;;
11338;SDS011;5724;42.684;23.252;2022-09-09T02:05:34;10.73;;;9.90;;
11338;SDS011;5724;42.684;23.252;2022-09-09T02:08:06;9.63;;;8.93;;
11338;SDS011;5724;42.684;23.252;2022-09-09T02:13:18;10.77;;;10.02;;
11338;SDS011;5724;42.684;23.252;2022-09-09T02:15:53;10.43;;;9.23;;
11338;SDS011;5724;42.684;23.252;2022-09-09T02:18:31;11.15;;;10.35;;
11338;SDS011;5724;42.684;23.252;2022-09-09T02:21:00;10.43;;;9.52;;
11338;SDS011;5724;42.684;23.252;2022-09-09T02:23:28;10.13;;;9.20;;
11338;SDS011;5724;42.684;23.252;2022-09-09T02:25:53;9.93;;;9.18;;
11338;SDS011;5724;42.684;23.252;2022-09-09T02:28:22;10.38;;;9.57;;
11338;SDS011;5724;42.684;23.252;2022-09-09T02:30:50;11.63;;;9.57;;
11338;SDS011;5724;42.684;23.252;2022-09-09T02:33:20;10.05;;;9.45;;
11338;SDS011;5724;42.684;23.252;2022-09-09T02:35:50;10.43;;;9.73;;
11338;SDS011;5724;42.684;23.252;2022-09-09T02:38:16;9.57;;;9.00;;
11338;SDS011;5724;42.684;23.252;2022-09-09T02:40:43;10.52;;;9.73;;
11338;SDS011;5724;42.684;23.252;2022-09-09T02:43:08;10.00;;;9.10;;
11338;SDS011;5724;42.684;23.252;2022-09-09T02:45:41;10.32;;;9.45;;
11338;SDS011;5724;42.684;23.252;2022-09-09T02:48:35;10.05;;;9.35;;
11338;SDS011;5724;42.684;23.252;2022-09-09T02:51:54;10.65;;;9.85;;
11338;SDS011;5724;42.684;23.252;2022-09-09T02:56:45;9.85;;;9.10;;
11338;SDS011;5724;42.684;23.252;2022-09-09T02:59:16;10.35;;;9.63;;
11338;SDS011;5724;42.684;23.252;2022-09-09T03:01:43;12.52;;;9.85;;
11338;SDS011;5724;42.684;23.252;2022-09-09T03:04:09;10.88;;;9.98;;
11338;SDS011;5724;42.684;23.252;2022-09-09T03:06:34;9.85;;;9.10;;
11338;SDS011;5724;42.684;23.252;2022-09-09T03:09:00;10.20;;;9.50;;
11338;SDS011;5724;42.684;23.252;2022-09-09T03:11:27;9.63;;;9.00;;
11338;SDS011;5724;42.684;23.252;2022-09-09T03:13:53;10.10;;;9.40;;
11338;SDS011;5724;42.684;23.252;2022-09-09T03:16:21;11.32;;;10.40;;
11338;SDS011;5724;42.684;23.252;2022-09-09T03:18:47;9.98;;;9.18;;
11338;SDS011;5724;42.684;23.252;2022-09-09T03:21:12;11.07;;;10.27;;
11338;SDS011;5724;42.684;23.252;2022-09-09T03:23:38;10.20;;;9.25;;
11338;SDS011;5724;42.684;23.252;2022-09-09T03:26:04;10.55;;;9.82;;
11338;SDS011;5724;42.684;23.252;2022-09-09T03:28:29;11.52;;;10.52;;
11338;SDS011;5724;42.684;23.252;2022-09-09T03:31:04;10.60;;;9.48;;
11338;SDS011;5724;42.684;23.252;2022-09-09T03:33:30;11.25;;;10.45;;
11338;SDS011;5724;42.684;23.252;2022-09-09T03:35:56;11.10;;;10.07;;
11338;SDS011;5724;42.684;23.252;2022-09-09T03:38:23;10.52;;;9.85;;
11338;SDS011;5724;42.684;23.252;2022-09-09T03:40:53;11.30;;;10.30;;
11338;SDS011;5724;42.684;23.252;2022-09-09T03:43:24;12.95;;;11.63;;
11338;SDS011;5724;42.684;23.252;2022-09-09T03:45:50;11.63;;;10.63;;
11338;SDS011;5724;42.684;23.252;2022-09-09T03:48:16;12.73;;;10.70;;
11338;SDS011;5724;42.684;23.252;2022-09-09T03:50:46;10.85;;;9.80;;
11338;SDS011;5724;42.684;23.252;2022-09-09T03:53:13;11.05;;;10.35;;
11338;SDS011;5724;42.684;23.252;2022-09-09T03:55:43;11.52;;;10.57;;
11338;SDS011;5724;42.684;23.252;2022-09-09T03:58:13;11.43;;;10.60;;
11338;SDS011;5724;42.684;23.252;2022-09-09T04:00:39;11.93;;;10.82;;
11338;SDS011;5724;42.684;23.252;2022-09-09T04:03:09;13.15;;;10.93;;
11338;SDS011;5724;42.684;23.252;2022-09-09T04:05:36;12.00;;;10.70;;
11338;SDS011;5724;42.684;23.252;2022-09-09T04:08:06;12.32;;;11.15;;
11338;SDS011;5724;42.684;23.252;2022-09-09T04:10:31;11.57;;;10.52;;
11338;SDS011;5724;42.684;23.252;2022-09-09T04:12:57;12.88;;;11.60;;
11338;SDS011;5724;42.684;23.252;2022-09-09T04:15:22;12.25;;;11.25;;
11338;SDS011;5724;42.684;23.252;2022-09-09T04:17:48;12.38;;;11.15;;
11338;SDS011;5724;42.684;23.252;2022-09-09T04:20:13;12.70;;;11.60;;
11338;SDS011;5724;42.684;23.252;2022-09-09T04:22:38;12.20;;;11.18;;
11338;SDS011;5724;42.684;23.252;2022-09-09T04:25:05;12.32;;;10.98;;
11338;SDS011;5724;42.684;23.252;2022-09-09T04:27:31;14.88;;;11.18;;
11338;SDS011;5724;42.684;23.252;2022-09-09T04:29:57;14.18;;;11.15;;
11338;SDS011;5724;42.684;23.252;2022-09-09T04:32:22;12.60;;;11.13;;
11338;SDS011;5724;42.684;23.252;2022-09-09T04:34:51;12.38;;;11.38;;
11338;SDS011;5724;42.684;23.252;2022-09-09T04:37:16;13.32;;;12.05;;
11338;SDS011;5724;42.684;23.252;2022-09-09T04:39:42;13.35;;;12.20;;
11338;SDS011;5724;42.684;23.252;2022-09-09T04:42:07;12.52;;;11.40;;
11338;SDS011;5724;42.684;23.252;2022-09-09T04:44:32;12.38;;;11.30;;
11338;SDS011;5724;42.684;23.252;2022-09-09T04:46:58;12.02;;;10.80;;
11338;SDS011;5724;42.684;23.252;2022-09-09T04:49:23;13.02;;;11.27;;
11338;SDS011;5724;42.684;23.252;2022-09-09T04:51:49;14.27;;;11.77;;
11338;SDS011;5724;42.684;23.252;2022-09-09T04:54:14;15.05;;;10.52;;
11338;SDS011;5724;42.684;23.252;2022-09-09T04:56:40;16.33;;;11.27;;
11338;SDS011;5724;42.684;23.252;2022-09-09T04:59:07;11.15;;;10.20;;
11338;SDS011;5724;42.684;23.252;2022-09-09T05:01:33;12.07;;;10.70;;
11338;SDS011;5724;42.684;23.252;2022-09-09T05:03:59;18.30;;;10.63;;
11338;SDS011;5724;42.684;23.252;2022-09-09T05:06:24;24.02;;;11.57;;
11338;SDS011;5724;42.684;23.252;2022-09-09T05:08:50;11.70;;;9.80;;
11338;SDS011;5724;42.684;23.252;2022-09-09T05:13:49;12.82;;;10.60;;
11338;SDS011;5724;42.684;23.252;2022-09-09T05:16:15;14.95;;;10.85;;
11338;SDS011;5724;42.684;23.252;2022-09-09T05:18:42;11.73;;;10.50;;
11338;SDS011;5724;42.684;23.252;2022-09-09T05:21:08;17.02;;;10.23;;
11338;SDS011;5724;42.684;23.252;2022-09-09T05:23:34;12.77;;;10.48;;
11338;SDS011;5724;42.684;23.252;2022-09-09T05:26:00;14.80;;;9.65;;
11338;SDS011;5724;42.684;23.252;2022-09-09T05:28:26;11.77;;;10.25;;
11338;SDS011;5724;42.684;23.252;2022-09-09T05:30:56;12.10;;;10.98;;
11338;SDS011;5724;42.684;23.252;2022-09-09T05:33:26;11.80;;;10.70;;
11338;SDS011;5724;42.684;23.252;2022-09-09T05:35:58;10.73;;;9.82;;
11338;SDS011;5724;42.684;23.252;2022-09-09T05:38:26;12.57;;;11.40;;
11338;SDS011;5724;42.684;23.252;2022-09-09T05:40:52;18.02;;;12.48;;
11338;SDS011;5724;42.684;23.252;2022-09-09T05:43:19;15.75;;;12.45;;
11338;SDS011;5724;42.684;23.252;2022-09-09T05:45:47;17.50;;;12.98;;
11338;SDS011;5724;42.684;23.252;2022-09-09T05:48:14;14.50;;;13.20;;
11338;SDS011;5724;42.684;23.252;2022-09-09T05:50:41;20.92;;;13.30;;
11338;SDS011;5724;42.684;23.252;2022-09-09T05:53:07;14.60;;;13.38;;
11338;SDS011;5724;42.684;23.252;2022-09-09T05:55:33;16.15;;;12.98;;
11338;SDS011;5724;42.684;23.252;2022-09-09T05:57:59;14.88;;;13.48;;
11338;SDS011;5724;42.684;23.252;2022-09-09T06:00:24;15.23;;;13.68;;
11338;SDS011;5724;42.684;23.252;2022-09-09T06:02:51;17.60;;;15.57;;
11338;SDS011;5724;42.684;23.252;2022-09-09T06:05:18;15.73;;;14.15;;
11338;SDS011;5724;42.684;23.252;2022-09-09T06:07:43;14.45;;;13.27;;
11338;SDS011;5724;42.684;23.252;2022-09-09T06:10:10;13.40;;;12.18;;
11338;SDS011;5724;42.684;23.252;2022-09-09T06:12:38;14.45;;;13.00;;
11338;SDS011;5724;42.684;23.252;2022-09-09T06:15:04;14.20;;;12.73;;
11338;SDS011;5724;42.684;23.252;2022-09-09T06:17:30;12.93;;;11.90;;
11338;SDS011;5724;42.684;23.252;2022-09-09T06:19:55;12.93;;;11.60;;
11338;SDS011;5724;42.684;23.252;2022-09-09T06:22:21;12.88;;;11.55;;
11338;SDS011;5724;42.684;23.252;2022-09-09T06:24:46;12.68;;;11.48;;
11338;SDS011;5724;42.684;23.252;2022-09-09T06:27:11;13.10;;;12.00;;
11338;SDS011;5724;42.684;23.252;2022-09-09T06:29:38;12.27;;;11.35;;
11338;SDS011;5724;42.684;23.252;2022-09-09T06:32:04;13.38;;;11.48;;
11338;SDS011;5724;42.684;23.252;2022-09-09T06:34:30;14.82;;;11.27;;
11338;SDS011;5724;42.684;23.252;2022-09-09T06:36:55;12.20;;;11.15;;
11338;SDS011;5724;42.684;23.252;2022-09-09T06:39:23;11.40;;;10.40;;
11338;SDS011;5724;42.684;23.252;2022-09-09T06:41:48;11.10;;;10.00;;
11338;SDS011;5724;42.684;23.252;2022-09-09T06:44:14;11.07;;;9.98;;
11338;SDS011;5724;42.684;23.252;2022-09-09T06:46:40;12.57;;;11.30;;
11338;SDS011;5724;42.684;23.252;2022-09-09T06:49:07;12.90;;;11.65;;
11338;SDS011;5724;42.684;23.252;2022-09-09T06:51:34;13.00;;;11.77;;
11338;SDS011;5724;42.684;23.252;2022-09-09T06:54:01;13.73;;;12.23;;
11338;SDS011;5724;42.684;23.252;2022-09-09T06:56:30;13.68;;;12.05;;
11338;SDS011;5724;42.684;23.252;2022-09-09T06:58:58;20.45;;;12.82;;
11338;SDS011;5724;42.684;23.252;2022-09-09T07:01:28;13.38;;;11.15;;
11338;SDS011;5724;42.684;23.252;2022-09-09T07:03:55;13.40;;;12.20;;
11338;SDS011;5724;42.684;23.252;2022-09-09T07:06:27;14.60;;;11.40;;
11338;SDS011;5724;42.684;23.252;2022-09-09T07:08:55;15.73;;;11.13;;
11338;SDS011;5724;42.684;23.252;2022-09-09T07:11:29;17.20;;;12.18;;
11338;SDS011;5724;42.684;23.252;2022-09-09T07:13:57;15.38;;;12.27;;
11338;SDS011;5724;42.684;23.252;2022-09-09T07:16:24;17.25;;;11.80;;
11338;SDS011;5724;42.684;23.252;2022-09-09T07:18:50;16.05;;;12.30;;
11338;SDS011;5724;42.684;23.252;2022-09-09T07:21:17;14.32;;;11.88;;
11338;SDS011;5724;42.684;23.252;2022-09-09T07:23:42;16.98;;;11.55;;
11338;SDS011;5724;42.684;23.252;2022-09-09T07:26:12;15.32;;;11.15;;
11338;SDS011;5724;42.684;23.252;2022-09-09T07:28:39;12.80;;;11.48;;
11338;SDS011;5724;42.684;23.252;2022-09-09T07:31:06;13.48;;;12.10;;
11338;SDS011;5724;42.684;23.252;2022-09-09T07:33:38;18.10;;;11.77;;
11338;SDS011;5724;42.684;23.252;2022-09-09T07:36:19;11.27;;;10.38;;
11338;SDS011;5724;42.684;23.252;2022-09-09T07:38:50;12.05;;;10.93;;
11338;SDS011;5724;42.684;23.252;2022-09-09T07:41:19;11.65;;;10.40;;
11338;SDS011;5724;42.684;23.252;2022-09-09T07:43:56;11.77;;;10.48;;
11338;SDS011;5724;42.684;23.252;2022-09-09T07:46:23;12.15;;;9.77;;
11338;SDS011;5724;42.684;23.252;2022-09-09T07:48:54;10.82;;;9.82;;
11338;SDS011;5724;42.684;23.252;2022-09-09T07:51:22;10.35;;;9.45;;
11338;SDS011;5724;42.684;23.252;2022-09-09T07:53:54;9.75;;;8.52;;
11338;SDS011;5724;42.684;23.252;2022-09-09T07:56:23;10.45;;;9.30;;
11338;SDS011;5724;42.684;23.252;2022-09-09T07:58:50;10.40;;;9.50;;
11338;SDS011;5724;42.684;23.252;2022-09-09T08:01:20;11.68;;;9.25;;
11338;SDS011;5724;42.684;23.252;2022-09-09T08:03:52;10.35;;;9.57;;
11338;SDS011;5724;42.684;23.252;2022-09-09T08:06:19;14.25;;;10.05;;
11338;SDS011;5724;42.684;23.252;2022-09-09T08:08:49;13.65;;;10.27;;
11338;SDS011;5724;42.684;23.252;2022-09-09T08:11:15;14.95;;;10.00;;
11338;SDS011;5724;42.684;23.252;2022-09-09T08:13:41;11.85;;;9.20;;
11338;SDS011;5724;42.684;23.252;2022-09-09T08:16:09;9.95;;;9.15;;
11338;SDS011;5724;42.684;23.252;2022-09-09T08:18:37;13.00;;;9.15;;
11338;SDS011;5724;42.684;23.252;2022-09-09T08:21:04;9.43;;;8.52;;
11338;SDS011;5724;42.684;23.252;2022-09-09T08:23:31;9.95;;;7.68;;
11338;SDS011;5724;42.684;23.252;2022-09-09T08:26:03;10.05;;;9.32;;
11338;SDS011;5724;42.684;23.252;2022-09-09T08:28:29;12.55;;;9.02;;
11338;SDS011;5724;42.684;23.252;2022-09-09T08:30:56;9.88;;;8.90;;
11338;SDS011;5724;42.684;23.252;2022-09-09T08:33:29;13.15;;;8.75;;
11338;SDS011;5724;42.684;23.252;2022-09-09T08:35:54;10.32;;;9.23;;
11338;SDS011;5724;42.684;23.252;2022-09-09T08:38:20;9.88;;;8.23;;
11338;SDS011;5724;42.684;23.252;2022-09-09T08:40:46;14.85;;;9.50;;
11338;SDS011;5724;42.684;23.252;2022-09-09T08:43:18;9.65;;;8.73;;
11338;SDS011;5724;42.684;23.252;2022-09-09T08:45:54;9.55;;;8.43;;
11338;SDS011;5724;42.684;23.252;2022-09-09T08:51:06;10.38;;;8.30;;
11338;SDS011;5724;42.684;23.252;2022-09-09T08:53:42;10.35;;;8.23;;
11338;SDS011;5724;42.684;23.252;2022-09-09T08:56:13;8.52;;;7.80;;
11338;SDS011;5724;42.684;23.252;2022-09-09T08:58:51;10.77;;;9.07;;
11338;SDS011;5724;42.684;23.252;2022-09-09T09:12:18;12.43;;;8.77;;
11338;SDS011;5724;42.684;23.252;2022-09-09T09:14:47;12.88;;;8.40;;
11338;SDS011;5724;42.684;23.252;2022-09-09T09:17:17;9.95;;;8.65;;
11338;SDS011;5724;42.684;23.252;2022-09-09T09:19:44;9.38;;;8.30;;
11338;SDS011;5724;42.684;23.252;2022-09-09T09:30:47;13.05;;;11.50;;
11338;SDS011;5724;42.684;23.252;2022-09-09T09:33:20;14.15;;;11.95;;
11338;SDS011;5724;42.684;23.252;2022-09-09T09:35:49;10.68;;;8.32;;
11338;SDS011;5724;42.684;23.252;2022-09-09T09:38:19;11.18;;;7.28;;
11338;SDS011;5724;42.684;23.252;2022-09-09T09:40:57;11.05;;;7.47;;
11338;SDS011;5724;42.684;23.252;2022-09-09T09:43:26;9.18;;;7.68;;
11338;SDS011;5724;42.684;23.252;2022-09-09T09:45:56;12.30;;;7.30;;
11338;SDS011;5724;42.684;23.252;2022-09-09T09:48:26;10.05;;;7.38;;
11338;SDS011;5724;42.684;23.252;2022-09-09T09:50:54;8.82;;;7.15;;
11338;SDS011;5724;42.684;23.252;2022-09-09T09:58:33;8.65;;;7.22;;
11338;SDS011;5724;42.684;23.252;2022-09-09T10:01:27;7.45;;;6.55;;
11338;SDS011;5724;42.684;23.252;2022-09-09T10:03:58;7.75;;;6.60;;
11338;SDS011;5724;42.684;23.252;2022-09-09T10:06:33;7.07;;;6.57;;
11338;SDS011;5724;42.684;23.252;2022-09-09T10:09:01;9.48;;;6.72;;
11338;SDS011;5724;42.684;23.252;2022-09-09T10:24:24;8.05;;;7.18;;
11338;SDS011;5724;42.684;23.252;2022-09-09T10:30:01;7.68;;;6.47;;
11338;SDS011;5724;42.684;23.252;2022-09-09T10:40:46;7.35;;;6.68;;
11338;SDS011;5724;42.684;23.252;2022-09-09T10:49:04;18.77;;;7.82;;
11338;SDS011;5724;42.684;23.252;2022-09-09T10:54:56;14.40;;;7.68;;
11338;SDS011;5724;42.684;23.252;2022-09-09T10:57:21;7.85;;;7.05;;
11338;SDS011;5724;42.684;23.252;2022-09-09T11:00:21;15.85;;;7.93;;
11338;SDS011;5724;42.684;23.252;2022-09-09T11:02:54;9.77;;;7.50;;
11338;SDS011;5724;42.684;23.252;2022-09-09T11:05:31;15.20;;;8.40;;
11338;SDS011;5724;42.684;23.252;2022-09-09T11:08:09;9.65;;;7.43;;
11338;SDS011;5724;42.684;23.252;2022-09-09T11:10:54;12.88;;;8.13;;
11338;SDS011;5724;42.684;23.252;2022-09-09T11:13:30;10.43;;;8.05;;
11338;SDS011;5724;42.684;23.252;2022-09-09T11:16:29;9.90;;;7.28;;
11338;SDS011;5724;42.684;23.252;2022-09-09T11:21:46;9.73;;;7.40;;
11338;SDS011;5724;42.684;23.252;2022-09-09T11:32:54;8.55;;;7.53;;
11338;SDS011;5724;42.684;23.252;2022-09-09T11:40:43;10.85;;;7.50;;
11338;SDS011;5724;42.684;23.252;2022-09-09T11:43:10;7.63;;;6.97;;
11338;SDS011;5724;42.684;23.252;2022-09-09T11:45:39;9.93;;;7.55;;
11338;SDS011;5724;42.684;23.252;2022-09-09T11:48:23;7.90;;;7.10;;
11338;SDS011;5724;42.684;23.252;2022-09-09T11:50:57;13.85;;;7.28;;
11338;SDS011;5724;42.684;23.252;2022-09-09T11:53:25;9.60;;;7.28;;
11338;SDS011;5724;42.684;23.252;2022-09-09T11:56:04;8.23;;;7.07;;
11338;SDS011;5724;42.684;23.252;2022-09-09T11:58:39;11.40;;;6.85;;
11338;SDS011;5724;42.684;23.252;2022-09-09T12:01:40;8.00;;;7.20;;
11338;SDS011;5724;42.684;23.252;2022-09-09T12:06:44;8.77;;;6.70;;
11338;SDS011;5724;42.684;23.252;2022-09-09T12:11:52;12.98;;;7.15;;
11338;SDS011;5724;42.684;23.252;2022-09-09T12:14:37;8.00;;;7.25;;
11338;SDS011;5724;42.684;23.252;2022-09-09T12:19:45;10.27;;;6.28;;
11338;SDS011;5724;42.684;23.252;2022-09-09T12:24:45;6.57;;;5.97;;
11338;SDS011;5724;42.684;23.252;2022-09-09T12:27:54;11.50;;;6.53;;
11338;SDS011;5724;42.684;23.252;2022-09-09T12:30:28;8.00;;;5.97;;
11338;SDS011;5724;42.684;23.252;2022-09-09T12:33:18;6.75;;;5.60;;
11338;SDS011;5724;42.684;23.252;2022-09-09T12:35:45;5.60;;;5.10;;
11338;SDS011;5724;42.684;23.252;2022-09-09T12:38:32;5.78;;;5.28;;
11338;SDS011;5724;42.684;23.252;2022-09-09T12:41:05;5.65;;;5.10;;
11338;SDS011;5724;42.684;23.252;2022-09-09T12:43:31;5.57;;;5.07;;
11338;SDS011;5724;42.684;23.252;2022-09-09T12:45:59;7.22;;;5.35;;
11338;SDS011;5724;42.684;23.252;2022-09-09T12:48:39;8.77;;;5.72;;
11338;SDS011;5724;42.684;23.252;2022-09-09T12:51:23;7.28;;;5.13;;
11338;SDS011;5724;42.684;23.252;2022-09-09T12:53:52;8.18;;;5.10;;
11338;SDS011;5724;42.684;23.252;2022-09-09T12:56:19;6.68;;;6.18;;
11338;SDS011;5724;42.684;23.252;2022-09-09T12:58:52;5.60;;;5.18;;
11338;SDS011;5724;42.684;23.252;2022-09-09T13:01:29;8.50;;;5.78;;
11338;SDS011;5724;42.684;23.252;2022-09-09T13:03:57;6.97;;;5.88;;
11338;SDS011;5724;42.684;23.252;2022-09-09T13:06:27;5.95;;;5.45;;
11338;SDS011;5724;42.684;23.252;2022-09-09T13:08:54;5.72;;;5.22;;
11338;SDS011;5724;42.684;23.252;2022-09-09T13:11:38;6.40;;;5.80;;
11338;SDS011;5724;42.684;23.252;2022-09-09T13:14:12;6.40;;;5.90;;
11338;SDS011;5724;42.684;23.252;2022-09-09T13:16:58;6.55;;;5.75;;
11338;SDS011;5724;42.684;23.252;2022-09-09T13:19:25;10.40;;;5.53;;
11338;SDS011;5724;42.684;23.252;2022-09-09T13:21:53;6.75;;;5.40;;
11338;SDS011;5724;42.684;23.252;2022-09-09T13:24:30;6.82;;;5.20;;
11338;SDS011;5724;42.684;23.252;2022-09-09T13:26:58;7.30;;;5.93;;
11338;SDS011;5724;42.684;23.252;2022-09-09T13:29:28;7.10;;;5.43;;
11338;SDS011;5724;42.684;23.252;2022-09-09T13:32:03;7.20;;;5.80;;
11338;SDS011;5724;42.684;23.252;2022-09-09T13:34:31;7.38;;;5.57;;
11338;SDS011;5724;42.684;23.252;2022-09-09T13:37:14;5.40;;;4.85;;
11338;SDS011;5724;42.684;23.252;2022-09-09T13:39:50;8.88;;;5.88;;
11338;SDS011;5724;42.684;23.252;2022-09-09T13:42:25;6.72;;;6.00;;
11338;SDS011;5724;42.684;23.252;2022-09-09T13:44:52;7.97;;;6.00;;
11338;SDS011;5724;42.684;23.252;2022-09-09T13:47:21;6.25;;;5.68;;
11338;SDS011;5724;42.684;23.252;2022-09-09T13:49:56;7.38;;;5.40;;
11338;SDS011;5724;42.684;23.252;2022-09-09T13:52:22;7.75;;;5.82;;
11338;SDS011;5724;42.684;23.252;2022-09-09T13:54:48;6.07;;;5.53;;
11338;SDS011;5724;42.684;23.252;2022-09-09T13:57:16;6.72;;;5.55;;
11338;SDS011;5724;42.684;23.252;2022-09-09T13:59:43;6.90;;;5.80;;
11338;SDS011;5724;42.684;23.252;2022-09-09T14:02:10;9.55;;;7.13;;
11338;SDS011;5724;42.684;23.252;2022-09-09T14:04:35;7.57;;;6.70;;
11338;SDS011;5724;42.684;23.252;2022-09-09T14:07:01;8.32;;;6.38;;
11338;SDS011;5724;42.684;23.252;2022-09-09T14:09:28;6.30;;;5.55;;
11338;SDS011;5724;42.684;23.252;2022-09-09T14:11:53;6.63;;;5.68;;
11338;SDS011;5724;42.684;23.252;2022-09-09T14:14:20;7.28;;;5.13;;
11338;SDS011;5724;42.684;23.252;2022-09-09T14:16:46;8.23;;;5.85;;
11338;SDS011;5724;42.684;23.252;2022-09-09T14:19:12;6.45;;;5.82;;
11338;SDS011;5724;42.684;23.252;2022-09-09T14:21:37;12.43;;;6.07;;
11338;SDS011;5724;42.684;23.252;2022-09-09T14:24:03;11.32;;;6.72;;
11338;SDS011;5724;42.684;23.252;2022-09-09T14:26:29;9.40;;;7.03;;
11338;SDS011;5724;42.684;23.252;2022-09-09T14:28:55;11.38;;;6.47;;
11338;SDS011;5724;42.684;23.252;2022-09-09T14:31:21;12.38;;;6.75;;
11338;SDS011;5724;42.684;23.252;2022-09-09T14:33:47;6.90;;;6.25;;
11338;SDS011;5724;42.684;23.252;2022-09-09T14:36:12;7.90;;;6.35;;
11338;SDS011;5724;42.684;23.252;2022-09-09T14:38:38;13.82;;;7.95;;
11338;SDS011;5724;42.684;23.252;2022-09-09T14:41:05;7.47;;;6.78;;
11338;SDS011;5724;42.684;23.252;2022-09-09T14:43:31;10.00;;;6.93;;
11338;SDS011;5724;42.684;23.252;2022-09-09T14:45:58;10.38;;;7.00;;
11338;SDS011;5724;42.684;23.252;2022-09-09T14:48:33;12.45;;;7.28;;
11338;SDS011;5724;42.684;23.252;2022-09-09T14:53:56;10.05;;;7.00;;
11338;SDS011;5724;42.684;23.252;2022-09-09T14:56:27;8.82;;;7.20;;
11338;SDS011;5724;42.684;23.252;2022-09-09T14:58:55;14.63;;;6.95;;
11338;SDS011;5724;42.684;23.252;2022-09-09T15:01:22;7.85;;;6.80;;
11338;SDS011;5724;42.684;23.252;2022-09-09T15:03:51;12.10;;;7.28;;
11338;SDS011;5724;42.684;23.252;2022-09-09T15:06:20;8.50;;;7.63;;
11338;SDS011;5724;42.684;23.252;2022-09-09T15:08:47;9.07;;;7.30;;
11338;SDS011;5724;42.684;23.252;2022-09-09T15:11:14;7.88;;;7.18;;
11338;SDS011;5724;42.684;23.252;2022-09-09T15:13:41;9.02;;;7.20;;
11338;SDS011;5724;42.684;23.252;2022-09-09T15:16:12;8.27;;;7.43;;
11338;SDS011;5724;42.684;23.252;2022-09-09T15:18:40;12.52;;;6.93;;
11338;SDS011;5724;42.684;23.252;2022-09-09T15:21:08;13.60;;;7.30;;
11338;SDS011;5724;42.684;23.252;2022-09-09T15:23:35;8.93;;;6.47;;
11338;SDS011;5724;42.684;23.252;2022-09-09T15:26:01;5.50;;;4.90;;
11338;SDS011;5724;42.684;23.252;2022-09-09T15:28:27;5.38;;;4.88;;
11338;SDS011;5724;42.684;23.252;2022-09-09T15:30:53;7.50;;;5.20;;
11338;SDS011;5724;42.684;23.252;2022-09-09T15:33:20;8.18;;;5.68;;
11338;SDS011;5724;42.684;23.252;2022-09-09T15:35:47;9.63;;;5.60;;
11338;SDS011;5724;42.684;23.252;2022-09-09T15:38:13;7.47;;;5.70;;
11338;SDS011;5724;42.684;23.252;2022-09-09T15:40:40;6.75;;;5.80;;
11338;SDS011;5724;42.684;23.252;2022-09-09T15:43:05;8.77;;;6.45;;
11338;SDS011;5724;42.684;23.252;2022-09-09T15:45:32;8.02;;;6.30;;
11338;SDS011;5724;42.684;23.252;2022-09-09T15:47:59;6.65;;;5.53;;
11338;SDS011;5724;42.684;23.252;2022-09-09T15:50:25;7.53;;;5.65;;
11338;SDS011;5724;42.684;23.252;2022-09-09T15:52:51;7.97;;;5.90;;
11338;SDS011;5724;42.684;23.252;2022-09-09T15:55:17;9.55;;;6.28;;
11338;SDS011;5724;42.684;23.252;2022-09-09T15:57:45;6.82;;;5.80;;
11338;SDS011;5724;42.684;23.252;2022-09-09T16:00:11;10.68;;;6.40;;
11338;SDS011;5724;42.684;23.252;2022-09-09T16:02:38;8.40;;;6.60;;
11338;SDS011;5724;42.684;23.252;2022-09-09T16:05:03;7.82;;;5.97;;
11338;SDS011;5724;42.684;23.252;2022-09-09T16:07:29;7.78;;;6.30;;
11338;SDS011;5724;42.684;23.252;2022-09-09T16:09:55;7.53;;;6.07;;
11338;SDS011;5724;42.684;23.252;2022-09-09T16:12:20;8.65;;;5.82;;
11338;SDS011;5724;42.684;23.252;2022-09-09T16:14:46;6.57;;;5.65;;
11338;SDS011;5724;42.684;23.252;2022-09-09T16:17:11;9.05;;;6.00;;
11338;SDS011;5724;42.684;23.252;2022-09-09T16:19:37;10.90;;;6.55;;
11338;SDS011;5724;42.684;23.252;2022-09-09T16:22:03;6.70;;;6.00;;
11338;SDS011;5724;42.684;23.252;2022-09-09T16:24:29;14.77;;;6.45;;
11338;SDS011;5724;42.684;23.252;2022-09-09T16:26:55;10.35;;;7.05;;
11338;SDS011;5724;42.684;23.252;2022-09-09T16:29:21;7.75;;;6.80;;
11338;SDS011;5724;42.684;23.252;2022-09-09T16:31:47;14.95;;;8.35;;
11338;SDS011;5724;42.684;23.252;2022-09-09T16:34:14;11.70;;;10.63;;
11338;SDS011;5724;42.684;23.252;2022-09-09T16:36:41;9.60;;;8.60;;
11338;SDS011;5724;42.684;23.252;2022-09-09T16:39:09;8.35;;;7.65;;
11338;SDS011;5724;42.684;23.252;2022-09-09T16:41:36;8.02;;;7.32;;
11338;SDS011;5724;42.684;23.252;2022-09-09T16:44:04;8.73;;;7.53;;
11338;SDS011;5724;42.684;23.252;2022-09-09T16:46:34;13.02;;;7.78;;
11338;SDS011;5724;42.684;23.252;2022-09-09T16:49:03;15.98;;;7.28;;
11338;SDS011;5724;42.684;23.252;2022-09-09T16:51:32;8.98;;;6.30;;
11338;SDS011;5724;42.684;23.252;2022-09-09T16:54:03;8.23;;;6.90;;
11338;SDS011;5724;42.684;23.252;2022-09-09T16:56:31;10.02;;;6.60;;
11338;SDS011;5724;42.684;23.252;2022-09-09T16:58:59;7.40;;;6.68;;
11338;SDS011;5724;42.684;23.252;2022-09-09T17:01:27;8.05;;;6.95;;
11338;SDS011;5724;42.684;23.252;2022-09-09T17:03:55;10.77;;;6.85;;
11338;SDS011;5724;42.684;23.252;2022-09-09T17:06:21;8.07;;;6.82;;
11338;SDS011;5724;42.684;23.252;2022-09-09T17:08:53;9.10;;;6.80;;
11338;SDS011;5724;42.684;23.252;2022-09-09T17:11:19;9.45;;;6.70;;
11338;SDS011;5724;42.684;23.252;2022-09-09T17:13:45;11.90;;;7.68;;
11338;SDS011;5724;42.684;23.252;2022-09-09T17:16:12;7.90;;;7.30;;
11338;SDS011;5724;42.684;23.252;2022-09-09T17:18:39;12.43;;;7.15;;
11338;SDS011;5724;42.684;23.252;2022-09-09T17:21:06;10.43;;;7.63;;